sensor_id;sensor_type;location;lat;lon;timestamp;temperature;humidity
23591;DHT22;11973;52.098;7.582;2022-12-18T00:01:19;-6.80;95.10
23591;DHT22;11973;52.098;7.582;2022-12-18T00:03:46;-6.80;95.00
23591;DHT22;11973;52.098;7.582;2022-12-18T00:06:14;-6.80;94.90
23591;DHT22;11973;52.098;7.582;2022-12-18T00:08:41;-6.90;94.80
23591;DHT22;11973;52.098;7.582;2022-12-18T00:11:10;-6.90;94.80
23591;DHT22;11973;52.098;7.582;2022-12-18T00:13:38;-6.90;94.90
23591;DHT22;11973;52.098;7.582;2022-12-18T00:16:06;-6.90;95.10
23591;DHT22;11973;52.098;7.582;2022-12-18T00:18:33;-7.00;94.70
23591;DHT22;11973;52.098;7.582;2022-12-18T00:21:00;-7.00;94.60
23591;DHT22;11973;52.098;7.582;2022-12-18T00:23:27;-6.90;94.60
23591;DHT22;11973;52.098;7.582;2022-12-18T00:25:53;-7.10;94.60
23591;DHT22;11973;52.098;7.582;2022-12-18T00:28:19;-7.10;94.50
23591;DHT22;11973;52.098;7.582;2022-12-18T00:30:45;-7.10;94.50
23591;DHT22;11973;52.098;7.582;2022-12-18T00:33:12;-7.10;94.50
23591;DHT22;11973;52.098;7.582;2022-12-18T00:35:38;-7.20;94.40
23591;DHT22;11973;52.098;7.582;2022-12-18T00:38:04;-7.20;94.70
23591;DHT22;11973;52.098;7.582;2022-12-18T00:40:34;-7.20;94.30
23591;DHT22;11973;52.098;7.582;2022-12-18T00:43:00;-7.20;94.30
23591;DHT22;11973;52.098;7.582;2022-12-18T00:45:28;-7.20;94.20
23591;DHT22;11973;52.098;7.582;2022-12-18T00:47:57;-7.30;94.20
23591;DHT22;11973;52.098;7.582;2022-12-18T00:50:24;-7.30;94.20
23591;DHT22;11973;52.098;7.582;2022-12-18T00:52:50;-7.30;94.20
23591;DHT22;11973;52.098;7.582;2022-12-18T00:55:17;-7.30;94.10
23591;DHT22;11973;52.098;7.582;2022-12-18T00:57:43;-7.40;94.10
23591;DHT22;11973;52.098;7.582;2022-12-18T01:00:18;-7.40;94.00
23591;DHT22;11973;52.098;7.582;2022-12-18T01:02:43;-7.40;94.00
23591;DHT22;11973;52.098;7.582;2022-12-18T01:05:11;-7.40;94.00
23591;DHT22;11973;52.098;7.582;2022-12-18T01:07:37;-7.50;94.00
23591;DHT22;11973;52.098;7.582;2022-12-18T01:10:04;-7.40;94.00
23591;DHT22;11973;52.098;7.582;2022-12-18T01:12:30;-7.50;94.10
23591;DHT22;11973;52.098;7.582;2022-12-18T01:14:56;-7.50;94.10
23591;DHT22;11973;52.098;7.582;2022-12-18T01:17:22;-7.50;94.00
23591;DHT22;11973;52.098;7.582;2022-12-18T01:20:05;-7.50;93.80
23591;DHT22;11973;52.098;7.582;2022-12-18T01:22:35;-7.60;93.70
23591;DHT22;11973;52.098;7.582;2022-12-18T01:25:02;-7.60;93.70
23591;DHT22;11973;52.098;7.582;2022-12-18T01:27:28;-7.60;93.60
23591;DHT22;11973;52.098;7.582;2022-12-18T01:29:54;-7.60;93.60
23591;DHT22;11973;52.098;7.582;2022-12-18T01:32:20;-7.70;93.60
23591;DHT22;11973;52.098;7.582;2022-12-18T01:34:46;-7.70;93.50
23591;DHT22;11973;52.098;7.582;2022-12-18T01:37:12;-7.70;93.50
23591;DHT22;11973;52.098;7.582;2022-12-18T01:39:37;-7.70;93.50
23591;DHT22;11973;52.098;7.582;2022-12-18T01:42:05;-7.70;93.60
23591;DHT22;11973;52.098;7.582;2022-12-18T01:44:54;-7.70;93.60
23591;DHT22;11973;52.098;7.582;2022-12-18T01:52:59;-7.80;93.50
23591;DHT22;11973;52.098;7.582;2022-12-18T01:55:29;-7.80;93.50
23591;DHT22;11973;52.098;7.582;2022-12-18T01:57:58;-7.80;93.50
23591;DHT22;11973;52.098;7.582;2022-12-18T02:00:25;-7.80;93.90
23591;DHT22;11973;52.098;7.582;2022-12-18T02:02:53;-7.90;93.50
23591;DHT22;11973;52.098;7.582;2022-12-18T02:06:28;-7.90;93.40
23591;DHT22;11973;52.098;7.582;2022-12-18T02:08:26;-7.90;93.30
23591;DHT22;11973;52.098;7.582;2022-12-18T02:16:39;-7.90;93.50
23591;DHT22;11973;52.098;7.582;2022-12-18T02:19:39;-8.00;93.70
23591;DHT22;11973;52.098;7.582;2022-12-18T02:28:04;-8.00;93.40
23591;DHT22;11973;52.098;7.582;2022-12-18T02:30:34;-8.00;93.30
23591;DHT22;11973;52.098;7.582;2022-12-18T02:33:01;-8.00;93.20
23591;DHT22;11973;52.098;7.582;2022-12-18T02:35:30;-8.00;93.20
23591;DHT22;11973;52.098;7.582;2022-12-18T02:38:09;-8.10;93.50
23591;DHT22;11973;52.098;7.582;2022-12-18T02:40:38;-8.10;93.20
23591;DHT22;11973;52.098;7.582;2022-12-18T02:43:14;-8.10;93.10
23591;DHT22;11973;52.098;7.582;2022-12-18T02:45:53;-8.10;93.10
23591;DHT22;11973;52.098;7.582;2022-12-18T02:48:24;-8.10;93.20
23591;DHT22;11973;52.098;7.582;2022-12-18T02:51:23;-8.10;93.20
23591;DHT22;11973;52.098;7.582;2022-12-18T02:53:56;-8.10;93.30
23591;DHT22;11973;52.098;7.582;2022-12-18T02:56:50;-8.10;93.20
23591;DHT22;11973;52.098;7.582;2022-12-18T02:59:30;-8.10;93.30
23591;DHT22;11973;52.098;7.582;2022-12-18T03:04:47;-8.20;93.20
23591;DHT22;11973;52.098;7.582;2022-12-18T03:07:32;-8.20;93.10
23591;DHT22;11973;52.098;7.582;2022-12-18T03:10:00;-8.20;93.10
23591;DHT22;11973;52.098;7.582;2022-12-18T03:12:40;-8.20;93.00
23591;DHT22;11973;52.098;7.582;2022-12-18T03:15:16;-8.20;93.00
23591;DHT22;11973;52.098;7.582;2022-12-18T03:17:48;-8.30;93.00
23591;DHT22;11973;52.098;7.582;2022-12-18T03:20:19;-8.30;93.00
23591;DHT22;11973;52.098;7.582;2022-12-18T03:22:51;-8.30;92.90
23591;DHT22;11973;52.098;7.582;2022-12-18T03:25:18;-8.30;92.80
23591;DHT22;11973;52.098;7.582;2022-12-18T03:27:48;-8.30;92.80
23591;DHT22;11973;52.098;7.582;2022-12-18T03:30:16;-8.40;92.70
23591;DHT22;11973;52.098;7.582;2022-12-18T03:33:12;-8.40;92.80
23591;DHT22;11973;52.098;7.582;2022-12-18T03:35:43;-8.40;92.80
23591;DHT22;11973;52.098;7.582;2022-12-18T03:38:11;-8.40;92.80
23591;DHT22;11973;52.098;7.582;2022-12-18T03:46:05;-8.50;92.80
23591;DHT22;11973;52.098;7.582;2022-12-18T03:48:38;-8.50;92.70
23591;DHT22;11973;52.098;7.582;2022-12-18T03:51:16;-8.50;92.80
23591;DHT22;11973;52.098;7.582;2022-12-18T03:53:58;-8.50;92.90
23591;DHT22;11973;52.098;7.582;2022-12-18T03:56:32;-8.50;92.90
23591;DHT22;11973;52.098;7.582;2022-12-18T03:58:59;-8.50;92.80
23591;DHT22;11973;52.098;7.582;2022-12-18T04:01:38;-8.50;92.80
23591;DHT22;11973;52.098;7.582;2022-12-18T04:04:05;-8.50;92.80
23591;DHT22;11973;52.098;7.582;2022-12-18T04:06:35;-8.60;92.70
23591;DHT22;11973;52.098;7.582;2022-12-18T04:09:02;-8.60;92.60
23591;DHT22;11973;52.098;7.582;2022-12-18T04:11:30;-8.60;92.50
23591;DHT22;11973;52.098;7.582;2022-12-18T04:13:57;-8.60;92.50
23591;DHT22;11973;52.098;7.582;2022-12-18T04:16:25;-8.70;92.50
23591;DHT22;11973;52.098;7.582;2022-12-18T04:19:03;-8.70;92.50
23591;DHT22;11973;52.098;7.582;2022-12-18T04:21:35;-8.70;92.50
23591;DHT22;11973;52.098;7.582;2022-12-18T04:24:00;-8.70;92.50
23591;DHT22;11973;52.098;7.582;2022-12-18T04:26:27;-8.70;92.50
23591;DHT22;11973;52.098;7.582;2022-12-18T04:29:22;-8.80;92.50
23591;DHT22;11973;52.098;7.582;2022-12-18T04:31:47;-8.80;92.50
23591;DHT22;11973;52.098;7.582;2022-12-18T04:34:15;-8.70;92.60
23591;DHT22;11973;52.098;7.582;2022-12-18T04:36:47;-8.80;92.60
23591;DHT22;11973;52.098;7.582;2022-12-18T04:39:17;-8.70;92.70
23591;DHT22;11973;52.098;7.582;2022-12-18T04:41:43;-8.80;92.70
23591;DHT22;11973;52.098;7.582;2022-12-18T04:44:09;-8.80;92.70
23591;DHT22;11973;52.098;7.582;2022-12-18T04:46:35;-8.80;92.70
23591;DHT22;11973;52.098;7.582;2022-12-18T04:49:01;-8.80;92.70
23591;DHT22;11973;52.098;7.582;2022-12-18T04:51:26;-8.80;92.80
23591;DHT22;11973;52.098;7.582;2022-12-18T04:53:52;-8.80;92.80
23591;DHT22;11973;52.098;7.582;2022-12-18T04:56:34;-8.80;92.80
23591;DHT22;11973;52.098;7.582;2022-12-18T04:59:00;-8.80;92.90
23591;DHT22;11973;52.098;7.582;2022-12-18T05:01:26;-8.80;92.80
23591;DHT22;11973;52.098;7.582;2022-12-18T05:03:51;-8.80;92.80
23591;DHT22;11973;52.098;7.582;2022-12-18T05:06:17;-8.70;93.20
23591;DHT22;11973;52.098;7.582;2022-12-18T05:08:43;-8.70;92.90
23591;DHT22;11973;52.098;7.582;2022-12-18T05:11:12;-8.80;92.80
23591;DHT22;11973;52.098;7.582;2022-12-18T05:13:39;-8.80;92.90
23591;DHT22;11973;52.098;7.582;2022-12-18T06:15:29;-8.80;93.00
23591;DHT22;11973;52.098;7.582;2022-12-18T06:17:55;-8.80;93.00
23591;DHT22;11973;52.098;7.582;2022-12-18T06:20:21;-8.80;93.40
23591;DHT22;11973;52.098;7.582;2022-12-18T06:22:47;-8.80;93.00
23591;DHT22;11973;52.098;7.582;2022-12-18T06:25:13;-8.80;93.00
23591;DHT22;11973;52.098;7.582;2022-12-18T06:27:38;-8.80;93.00
23591;DHT22;11973;52.098;7.582;2022-12-18T06:30:05;-8.80;93.00
23591;DHT22;11973;52.098;7.582;2022-12-18T06:32:31;-8.80;93.10
23591;DHT22;11973;52.098;7.582;2022-12-18T06:34:56;-8.80;93.10
23591;DHT22;11973;52.098;7.582;2022-12-18T06:37:22;-8.90;93.50
23591;DHT22;11973;52.098;7.582;2022-12-18T06:39:52;-8.80;93.30
23591;DHT22;11973;52.098;7.582;2022-12-18T06:42:18;-8.80;93.30
23591;DHT22;11973;52.098;7.582;2022-12-18T06:44:43;-8.80;93.20
23591;DHT22;11973;52.098;7.582;2022-12-18T06:47:09;-8.80;93.20
23591;DHT22;11973;52.098;7.582;2022-12-18T06:49:35;-8.90;93.20
23591;DHT22;11973;52.098;7.582;2022-12-18T06:52:00;-8.90;93.20
23591;DHT22;11973;52.098;7.582;2022-12-18T06:54:26;-8.80;93.30
23591;DHT22;11973;52.098;7.582;2022-12-18T06:56:52;-8.80;93.30
23591;DHT22;11973;52.098;7.582;2022-12-18T06:59:17;-8.80;93.40
23591;DHT22;11973;52.098;7.582;2022-12-18T07:01:43;-8.80;93.40
23591;DHT22;11973;52.098;7.582;2022-12-18T07:04:09;-8.80;93.40
23591;DHT22;11973;52.098;7.582;2022-12-18T07:06:34;-8.80;93.30
23591;DHT22;11973;52.098;7.582;2022-12-18T07:09:00;-8.80;93.70
23591;DHT22;11973;52.098;7.582;2022-12-18T07:11:26;-8.80;93.30
23591;DHT22;11973;52.098;7.582;2022-12-18T07:13:52;-8.80;93.30
23591;DHT22;11973;52.098;7.582;2022-12-18T07:16:20;-8.80;93.30
23591;DHT22;11973;52.098;7.582;2022-12-18T07:18:46;-8.80;93.40
23591;DHT22;11973;52.098;7.582;2022-12-18T07:21:15;-8.80;93.40
23591;DHT22;11973;52.098;7.582;2022-12-18T07:23:41;-8.80;93.30
23591;DHT22;11973;52.098;7.582;2022-12-18T07:26:12;-8.80;93.30
23591;DHT22;11973;52.098;7.582;2022-12-18T07:28:39;-8.80;93.30
23591;DHT22;11973;52.098;7.582;2022-12-18T07:31:14;-8.80;93.30
23591;DHT22;11973;52.098;7.582;2022-12-18T07:33:40;-8.80;93.30
23591;DHT22;11973;52.098;7.582;2022-12-18T07:36:07;-8.80;93.30
23591;DHT22;11973;52.098;7.582;2022-12-18T07:38:34;-8.80;93.30
23591;DHT22;11973;52.098;7.582;2022-12-18T07:41:02;-8.80;93.30
23591;DHT22;11973;52.098;7.582;2022-12-18T07:43:28;-8.80;93.20
23591;DHT22;11973;52.098;7.582;2022-12-18T07:45:54;-8.80;93.20
23591;DHT22;11973;52.098;7.582;2022-12-18T07:48:20;-8.80;93.20
23591;DHT22;11973;52.098;7.582;2022-12-18T07:50:45;-8.80;93.30
23591;DHT22;11973;52.098;7.582;2022-12-18T07:53:11;-8.80;93.30
23591;DHT22;11973;52.098;7.582;2022-12-18T07:55:37;-8.80;93.30
23591;DHT22;11973;52.098;7.582;2022-12-18T07:58:03;-8.80;93.40
23591;DHT22;11973;52.098;7.582;2022-12-18T08:00:30;-8.80;93.50
23591;DHT22;11973;52.098;7.582;2022-12-18T08:02:56;-8.70;93.70
23591;DHT22;11973;52.098;7.582;2022-12-18T08:05:22;-8.70;93.80
23591;DHT22;11973;52.098;7.582;2022-12-18T08:07:48;-8.70;93.90
23591;DHT22;11973;52.098;7.582;2022-12-18T08:10:13;-8.60;94.00
23591;DHT22;11973;52.098;7.582;2022-12-18T08:12:39;-8.60;94.10
23591;DHT22;11973;52.098;7.582;2022-12-18T08:15:05;-8.60;94.30
23591;DHT22;11973;52.098;7.582;2022-12-18T08:17:31;-8.50;94.40
23591;DHT22;11973;52.098;7.582;2022-12-18T08:19:57;-8.50;94.50
23591;DHT22;11973;52.098;7.582;2022-12-18T08:22:23;-8.40;94.70
23591;DHT22;11973;52.098;7.582;2022-12-18T08:24:48;-8.40;94.80
23591;DHT22;11973;52.098;7.582;2022-12-18T08:27:14;-8.60;94.90
23591;DHT22;11973;52.098;7.582;2022-12-18T08:29:40;-8.20;95.60
23591;DHT22;11973;52.098;7.582;2022-12-18T08:32:06;-8.20;95.40
23591;DHT22;11973;52.098;7.582;2022-12-18T08:34:31;-8.10;95.60
23591;DHT22;11973;52.098;7.582;2022-12-18T08:36:57;-8.00;95.70
23591;DHT22;11973;52.098;7.582;2022-12-18T08:39:23;-7.90;95.90
23591;DHT22;11973;52.098;7.582;2022-12-18T08:41:49;-7.90;96.00
23591;DHT22;11973;52.098;7.582;2022-12-18T08:44:34;-7.80;96.50
23591;DHT22;11973;52.098;7.582;2022-12-18T08:47:04;-7.70;96.40
23591;DHT22;11973;52.098;7.582;2022-12-18T08:49:29;-7.40;96.60
23591;DHT22;11973;52.098;7.582;2022-12-18T08:51:56;-7.60;96.70
23591;DHT22;11973;52.098;7.582;2022-12-18T08:54:23;-7.50;96.80
23591;DHT22;11973;52.098;7.582;2022-12-18T08:56:49;-7.40;96.90
23591;DHT22;11973;52.098;7.582;2022-12-18T08:59:16;-7.30;97.00
23591;DHT22;11973;52.098;7.582;2022-12-18T09:01:42;-7.20;97.10
23591;DHT22;11973;52.098;7.582;2022-12-18T09:04:10;-7.20;97.20
23591;DHT22;11973;52.098;7.582;2022-12-18T09:06:37;-7.10;97.30
23591;DHT22;11973;52.098;7.582;2022-12-18T09:09:03;-7.00;97.40
23591;DHT22;11973;52.098;7.582;2022-12-18T09:11:30;-6.90;97.50
23591;DHT22;11973;52.098;7.582;2022-12-18T09:13:57;-6.80;97.60
23591;DHT22;11973;52.098;7.582;2022-12-18T09:16:25;-6.80;97.70
23591;DHT22;11973;52.098;7.582;2022-12-18T09:18:51;-6.80;97.70
23591;DHT22;11973;52.098;7.582;2022-12-18T09:21:20;-6.70;97.80
23591;DHT22;11973;52.098;7.582;2022-12-18T09:23:50;-6.60;98.20
23591;DHT22;11973;52.098;7.582;2022-12-18T09:26:16;-6.60;97.90
23591;DHT22;11973;52.098;7.582;2022-12-18T09:28:42;-6.50;98.00
23591;DHT22;11973;52.098;7.582;2022-12-18T09:31:08;-6.40;98.10
23591;DHT22;11973;52.098;7.582;2022-12-18T09:33:35;-6.40;98.20
23591;DHT22;11973;52.098;7.582;2022-12-18T09:36:04;-6.30;98.30
23591;DHT22;11973;52.098;7.582;2022-12-18T09:38:30;-6.20;98.40
23591;DHT22;11973;52.098;7.582;2022-12-18T09:43:54;-6.10;98.60
23591;DHT22;11973;52.098;7.582;2022-12-18T09:46:29;-6.10;98.90
23591;DHT22;11973;52.098;7.582;2022-12-18T09:49:00;-6.00;98.70
23591;DHT22;11973;52.098;7.582;2022-12-18T09:51:29;-5.90;98.80
23591;DHT22;11973;52.098;7.582;2022-12-18T09:54:03;-5.90;98.90
23591;DHT22;11973;52.098;7.582;2022-12-18T09:56:35;-5.80;99.10
23591;DHT22;11973;52.098;7.582;2022-12-18T09:59:03;-5.70;99.20
23591;DHT22;11973;52.098;7.582;2022-12-18T10:01:31;-5.60;99.30
23591;DHT22;11973;52.098;7.582;2022-12-18T10:03:57;-5.60;99.50
23591;DHT22;11973;52.098;7.582;2022-12-18T10:06:35;-5.50;99.70
23591;DHT22;11973;52.098;7.582;2022-12-18T10:09:17;-5.40;99.90
23591;DHT22;11973;52.098;7.582;2022-12-18T10:12:05;-5.30;99.90
23591;DHT22;11973;52.098;7.582;2022-12-18T10:20:23;-5.00;99.90
23591;DHT22;11973;52.098;7.582;2022-12-18T10:28:24;-4.80;99.90
23591;DHT22;11973;52.098;7.582;2022-12-18T10:30:51;-4.80;99.90
23591;DHT22;11973;52.098;7.582;2022-12-18T10:33:20;-4.80;99.90
23591;DHT22;11973;52.098;7.582;2022-12-18T10:35:48;-4.70;99.90
23591;DHT22;11973;52.098;7.582;2022-12-18T10:40:57;-4.60;99.90
23591;DHT22;11973;52.098;7.582;2022-12-18T10:43:29;-4.60;99.90
23591;DHT22;11973;52.098;7.582;2022-12-18T10:46:04;-4.50;99.90
23591;DHT22;11973;52.098;7.582;2022-12-18T10:48:54;-4.40;99.90
23591;DHT22;11973;52.098;7.582;2022-12-18T10:51:29;-4.30;99.90
23591;DHT22;11973;52.098;7.582;2022-12-18T10:54:20;-4.30;99.90
23591;DHT22;11973;52.098;7.582;2022-12-18T10:56:47;-4.20;99.90
23591;DHT22;11973;52.098;7.582;2022-12-18T10:59:15;-4.10;99.90
23591;DHT22;11973;52.098;7.582;2022-12-18T11:04:18;-3.90;99.90
23591;DHT22;11973;52.098;7.582;2022-12-18T11:09:36;-3.70;99.90
23591;DHT22;11973;52.098;7.582;2022-12-18T11:12:15;-3.70;99.90
23591;DHT22;11973;52.098;7.582;2022-12-18T11:14:42;-3.60;99.90
23591;DHT22;11973;52.098;7.582;2022-12-18T11:17:29;-3.50;99.90
23591;DHT22;11973;52.098;7.582;2022-12-18T11:20:04;-3.40;99.90
23591;DHT22;11973;52.098;7.582;2022-12-18T11:22:33;-3.30;99.90
23591;DHT22;11973;52.098;7.582;2022-12-18T11:25:02;-3.30;99.90
23591;DHT22;11973;52.098;7.582;2022-12-18T11:27:29;-3.20;99.90
23591;DHT22;11973;52.098;7.582;2022-12-18T11:30:09;-3.20;99.90
23591;DHT22;11973;52.098;7.582;2022-12-18T11:32:38;-3.10;99.90
23591;DHT22;11973;52.098;7.582;2022-12-18T11:37:49;-3.00;99.90
23591;DHT22;11973;52.098;7.582;2022-12-18T11:40:19;-2.90;99.90
23591;DHT22;11973;52.098;7.582;2022-12-18T11:42:57;-2.90;99.90
23591;DHT22;11973;52.098;7.582;2022-12-18T11:45:35;-2.90;99.90
23591;DHT22;11973;52.098;7.582;2022-12-18T11:48:25;-2.80;99.90
23591;DHT22;11973;52.098;7.582;2022-12-18T11:50:56;-2.80;99.90
23591;DHT22;11973;52.098;7.582;2022-12-18T11:53:24;-2.70;99.90
23591;DHT22;11973;52.098;7.582;2022-12-18T12:01:22;-2.60;99.90
23591;DHT22;11973;52.098;7.582;2022-12-18T12:12:16;-2.50;99.90
23591;DHT22;11973;52.098;7.582;2022-12-18T12:20:22;-2.40;99.90
23591;DHT22;11973;52.098;7.582;2022-12-18T12:23:13;-2.40;99.90
23591;DHT22;11973;52.098;7.582;2022-12-18T12:25:57;-2.40;99.90
23591;DHT22;11973;52.098;7.582;2022-12-18T12:33:52;-2.30;99.90
23591;DHT22;11973;52.098;7.582;2022-12-18T12:39:01;-2.20;99.90
23591;DHT22;11973;52.098;7.582;2022-12-18T12:41:32;-2.20;99.90
23591;DHT22;11973;52.098;7.582;2022-12-18T12:44:26;-2.20;99.90
23591;DHT22;11973;52.098;7.582;2022-12-18T12:46:57;-2.20;99.90
23591;DHT22;11973;52.098;7.582;2022-12-18T12:49:29;-2.20;99.90
23591;DHT22;11973;52.098;7.582;2022-12-18T12:52:24;-2.10;99.90
23591;DHT22;11973;52.098;7.582;2022-12-18T12:54:53;-2.10;99.90
23591;DHT22;11973;52.098;7.582;2022-12-18T12:57:36;-2.10;99.90
23591;DHT22;11973;52.098;7.582;2022-12-18T13:00:04;-2.10;99.90
23591;DHT22;11973;52.098;7.582;2022-12-18T13:05:50;-2.00;99.90
23591;DHT22;11973;52.098;7.582;2022-12-18T13:08:25;-2.10;99.90
23591;DHT22;11973;52.098;7.582;2022-12-18T13:10:53;-2.00;99.90
23591;DHT22;11973;52.098;7.582;2022-12-18T13:13:50;-2.00;99.90
23591;DHT22;11973;52.098;7.582;2022-12-18T13:16:20;-2.00;99.90
23591;DHT22;11973;52.098;7.582;2022-12-18T13:18:51;-2.00;99.90
23591;DHT22;11973;52.098;7.582;2022-12-18T13:21:30;-2.00;99.90
23591;DHT22;11973;52.098;7.582;2022-12-18T13:24:35;-2.00;99.90
23591;DHT22;11973;52.098;7.582;2022-12-18T13:27:00;-2.00;99.90
23591;DHT22;11973;52.098;7.582;2022-12-18T13:29:43;-2.00;99.90
23591;DHT22;11973;52.098;7.582;2022-12-18T13:32:21;-2.00;99.90
23591;DHT22;11973;52.098;7.582;2022-12-18T13:34:47;-2.00;99.90
23591;DHT22;11973;52.098;7.582;2022-12-18T13:39:57;-1.90;99.90
23591;DHT22;11973;52.098;7.582;2022-12-18T13:45:40;-1.90;99.90
23591;DHT22;11973;52.098;7.582;2022-12-18T13:48:15;-1.90;99.90
23591;DHT22;11973;52.098;7.582;2022-12-18T13:50:42;-1.90;99.90
23591;DHT22;11973;52.098;7.582;2022-12-18T13:53:20;-1.90;99.90
23591;DHT22;11973;52.098;7.582;2022-12-18T13:55:47;-1.80;99.90
23591;DHT22;11973;52.098;7.582;2022-12-18T13:58:14;-1.90;99.90
23591;DHT22;11973;52.098;7.582;2022-12-18T14:00:44;-1.90;99.90
23591;DHT22;11973;52.098;7.582;2022-12-18T14:03:22;-1.90;99.90
23591;DHT22;11973;52.098;7.582;2022-12-18T14:05:54;-1.90;99.90
23591;DHT22;11973;52.098;7.582;2022-12-18T14:08:21;-1.90;99.90
23591;DHT22;11973;52.098;7.582;2022-12-18T14:10:48;-1.90;99.90
23591;DHT22;11973;52.098;7.582;2022-12-18T14:13:28;-1.90;99.90
23591;DHT22;11973;52.098;7.582;2022-12-18T14:15:55;-1.90;99.90
23591;DHT22;11973;52.098;7.582;2022-12-18T14:20:51;-1.90;99.90
23591;DHT22;11973;52.098;7.582;2022-12-18T14:23:29;-2.00;99.90
23591;DHT22;11973;52.098;7.582;2022-12-18T14:26:00;-2.00;99.90
23591;DHT22;11973;52.098;7.582;2022-12-18T14:28:26;-2.00;99.90
23591;DHT22;11973;52.098;7.582;2022-12-18T14:30:52;-1.90;99.90
23591;DHT22;11973;52.098;7.582;2022-12-18T14:33:21;-2.00;99.90
23591;DHT22;11973;52.098;7.582;2022-12-18T14:41:05;-1.90;99.90
23591;DHT22;11973;52.098;7.582;2022-12-18T14:43:37;-2.00;99.90
23591;DHT22;11973;52.098;7.582;2022-12-18T14:46:24;-1.90;99.90
23591;DHT22;11973;52.098;7.582;2022-12-18T14:48:51;-2.00;99.90
23591;DHT22;11973;52.098;7.582;2022-12-18T14:51:31;-2.00;99.90
23591;DHT22;11973;52.098;7.582;2022-12-18T14:53:58;-2.00;99.90
23591;DHT22;11973;52.098;7.582;2022-12-18T14:56:37;-2.00;99.90
23591;DHT22;11973;52.098;7.582;2022-12-18T14:59:16;-2.00;99.90
23591;DHT22;11973;52.098;7.582;2022-12-18T15:04:32;-2.00;99.90
23591;DHT22;11973;52.098;7.582;2022-12-18T15:07:19;-2.00;99.90
23591;DHT22;11973;52.098;7.582;2022-12-18T15:10:10;-2.00;99.90
23591;DHT22;11973;52.098;7.582;2022-12-18T15:12:43;-2.00;99.90
23591;DHT22;11973;52.098;7.582;2022-12-18T15:18:04;-2.00;99.90
23591;DHT22;11973;52.098;7.582;2022-12-18T15:20:40;-2.00;99.90
23591;DHT22;11973;52.098;7.582;2022-12-18T15:23:35;-2.00;99.90
23591;DHT22;11973;52.098;7.582;2022-12-18T15:26:04;-2.00;99.90
23591;DHT22;11973;52.098;7.582;2022-12-18T15:28:48;-2.00;99.90
23591;DHT22;11973;52.098;7.582;2022-12-18T15:34:09;-1.90;99.90
23591;DHT22;11973;52.098;7.582;2022-12-18T15:36:36;-1.90;99.90
23591;DHT22;11973;52.098;7.582;2022-12-18T15:39:03;-1.90;99.90
23591;DHT22;11973;52.098;7.582;2022-12-18T15:41:32;-1.90;99.90
23591;DHT22;11973;52.098;7.582;2022-12-18T15:43:59;-1.70;99.90
23591;DHT22;11973;52.098;7.582;2022-12-18T15:46:25;-1.90;99.90
23591;DHT22;11973;52.098;7.582;2022-12-18T15:48:53;-1.90;99.90
23591;DHT22;11973;52.098;7.582;2022-12-18T15:51:39;-1.90;99.90
23591;DHT22;11973;52.098;7.582;2022-12-18T15:54:11;-1.80;99.90
23591;DHT22;11973;52.098;7.582;2022-12-18T15:56:38;-1.80;99.90
23591;DHT22;11973;52.098;7.582;2022-12-18T15:59:22;-1.80;99.90
23591;DHT22;11973;52.098;7.582;2022-12-18T16:01:50;-1.80;99.90
23591;DHT22;11973;52.098;7.582;2022-12-18T16:04:18;-1.80;99.90
23591;DHT22;11973;52.098;7.582;2022-12-18T16:06:46;-1.80;99.90
23591;DHT22;11973;52.098;7.582;2022-12-18T16:09:12;-1.70;99.90
23591;DHT22;11973;52.098;7.582;2022-12-18T16:11:39;-1.70;99.90
23591;DHT22;11973;52.098;7.582;2022-12-18T16:14:22;-1.70;99.90
23591;DHT22;11973;52.098;7.582;2022-12-18T16:16:50;-1.70;99.90
23591;DHT22;11973;52.098;7.582;2022-12-18T16:19:17;-1.70;99.90
23591;DHT22;11973;52.098;7.582;2022-12-18T16:21:43;-1.70;99.90
23591;DHT22;11973;52.098;7.582;2022-12-18T16:24:20;-1.70;99.90
23591;DHT22;11973;52.098;7.582;2022-12-18T16:26:48;-1.70;99.90
23591;DHT22;11973;52.098;7.582;2022-12-18T16:29:14;-1.70;99.90
23591;DHT22;11973;52.098;7.582;2022-12-18T16:31:40;-1.60;99.90
23591;DHT22;11973;52.098;7.582;2022-12-18T16:34:26;-1.70;99.90
23591;DHT22;11973;52.098;7.582;2022-12-18T16:36:57;-1.60;99.90
23591;DHT22;11973;52.098;7.582;2022-12-18T16:39:24;-1.60;99.90
23591;DHT22;11973;52.098;7.582;2022-12-18T16:41:50;-1.60;99.90
23591;DHT22;11973;52.098;7.582;2022-12-18T16:44:16;-1.60;99.90
23591;DHT22;11973;52.098;7.582;2022-12-18T16:46:42;-1.60;99.90
23591;DHT22;11973;52.098;7.582;2022-12-18T16:49:14;-1.40;99.90
23591;DHT22;11973;52.098;7.582;2022-12-18T16:51:40;-1.60;99.90
23591;DHT22;11973;52.098;7.582;2022-12-18T16:54:07;-1.50;99.90
23591;DHT22;11973;52.098;7.582;2022-12-18T16:56:33;-1.60;99.90
23591;DHT22;11973;52.098;7.582;2022-12-18T16:59:00;-1.50;99.90
23591;DHT22;11973;52.098;7.582;2022-12-18T17:01:28;-1.50;99.90
23591;DHT22;11973;52.098;7.582;2022-12-18T17:04:02;-1.50;99.90
23591;DHT22;11973;52.098;7.582;2022-12-18T17:06:31;-1.50;99.90
23591;DHT22;11973;52.098;7.582;2022-12-18T17:09:03;-1.50;99.90
23591;DHT22;11973;52.098;7.582;2022-12-18T17:11:31;-1.50;99.90
23591;DHT22;11973;52.098;7.582;2022-12-18T17:13:58;-1.50;99.90
23591;DHT22;11973;52.098;7.582;2022-12-18T17:16:24;-1.50;99.90
23591;DHT22;11973;52.098;7.582;2022-12-18T17:18:52;-1.50;99.90
23591;DHT22;11973;52.098;7.582;2022-12-18T17:21:18;-1.50;99.90
23591;DHT22;11973;52.098;7.582;2022-12-18T17:23:44;-1.50;99.90
23591;DHT22;11973;52.098;7.582;2022-12-18T17:26:11;-1.50;99.90
23591;DHT22;11973;52.098;7.582;2022-12-18T17:28:38;-1.50;99.90
23591;DHT22;11973;52.098;7.582;2022-12-18T17:31:12;-1.50;99.90
23591;DHT22;11973;52.098;7.582;2022-12-18T17:33:38;-1.50;99.90
23591;DHT22;11973;52.098;7.582;2022-12-18T17:36:05;-1.40;99.90
23591;DHT22;11973;52.098;7.582;2022-12-18T17:38:31;-1.40;99.90
23591;DHT22;11973;52.098;7.582;2022-12-18T17:41:02;-1.50;99.90
23591;DHT22;11973;52.098;7.582;2022-12-18T17:43:28;-1.40;99.90
23591;DHT22;11973;52.098;7.582;2022-12-18T17:45:54;-1.40;99.90
23591;DHT22;11973;52.098;7.582;2022-12-18T17:48:22;-1.40;99.90
23591;DHT22;11973;52.098;7.582;2022-12-18T17:50:48;-1.40;99.90
23591;DHT22;11973;52.098;7.582;2022-12-18T17:53:13;-1.40;99.90
23591;DHT22;11973;52.098;7.582;2022-12-18T17:55:39;-1.40;99.90
23591;DHT22;11973;52.098;7.582;2022-12-18T17:58:07;-1.40;99.90
23591;DHT22;11973;52.098;7.582;2022-12-18T18:00:32;-1.40;99.90
23591;DHT22;11973;52.098;7.582;2022-12-18T18:02:58;-1.40;99.90
23591;DHT22;11973;52.098;7.582;2022-12-18T18:05:24;-1.40;99.90
23591;DHT22;11973;52.098;7.582;2022-12-18T18:07:50;-1.40;99.90
23591;DHT22;11973;52.098;7.582;2022-12-18T18:10:16;-1.40;99.90
23591;DHT22;11973;52.098;7.582;2022-12-18T18:12:42;-1.40;99.90
23591;DHT22;11973;52.098;7.582;2022-12-18T18:15:28;-1.40;99.90
23591;DHT22;11973;52.098;7.582;2022-12-18T18:17:54;-1.40;99.90
23591;DHT22;11973;52.098;7.582;2022-12-18T18:20:19;-1.40;99.90
23591;DHT22;11973;52.098;7.582;2022-12-18T18:22:45;-1.40;99.90
23591;DHT22;11973;52.098;7.582;2022-12-18T18:25:11;-1.40;99.90
23591;DHT22;11973;52.098;7.582;2022-12-18T18:27:37;-1.40;99.90
23591;DHT22;11973;52.098;7.582;2022-12-18T18:30:03;-1.40;99.90
23591;DHT22;11973;52.098;7.582;2022-12-18T18:32:29;-1.40;99.90